Saxis, Virginia
Current Conditions -  °F | °C
As of 7:54 AM on Thursday 23 Oct 2014 (Local Time) from KWAL Reporting Station
Overcast Overcast  
Wind Chill: 54°   Ceiling: 2800
Heat Index: 54°   Visibility: 10mi
Dew Point: 46°   Wind: 13mph
Humidity: 75%   Direction: 320°NW
Pressure: 29.81"   Gusts: 26mph
Location:  37.92°N, 75.72°W
Report Text: KWAL 231154Z AUTO 32011G23KT 10SM OVC028 12/08 A2981 RMK AO2 SLP091 60000 T01220078 10128 20111 53006
Loading
Personal Weather Stations






























Interactive Weather Map
Tropical Storm Tracking
New forecast layout! Learn more

10-Day Weather Forecast

Advertisements
Track Severe Weather on mobile